Etusivu
METAR-TAF:

METAR-TAF

Lentoasemat :

Kajaanin lentoasema

Kajaani, Suomi

Leveyspiiri: 64-17N, Pituuspiiri: 027-41E, korkeus merenpinnasta: 143 m

Tämänhetkinen sää

Tämä raportti tehtiin 30 minuuttia sitten, kello 05.20 UTC
Tuuli 6 kn kaakosta
Lämpötila -4°C
Kosteus 86%
Ilmanpaine 1030 hPa
Näkyvyys 10 km tai enemmän
Pilvistä 400 ft:n korkeudessa

METAR: EFKI 190520Z AUTO 13006KT 9999 OVC004 M04/M06 Q1030

Aika: 07:50 (05:50 UTC)

Sääennuste

Tämä raportti tehtiin 20 minuuttia sitten, kello 05.30 UTC
Ennuste voimassa 19. päivästä klo 06 UTC - 19. päivään klo 15 UTC
Tuuli 6 kn kaakosta
Näkyvyys 10 km tai enemmän
Pilvistä 400 ft:n korkeudessa
Ajoittain
19. päivästä klo 06 UTC - 19. päivään klo 08 UTC
Näkyvyys: 5000 m
Hajonneita pilviä 800 ft:n korkeudessa
heikkoa lumisadetta

TAF: EFKI 190530Z 1906/1915 13006KT 9999 OVC004 TEMPO 1906/1908 5000 -SN BKN008

Säähavainnot ja -ennusteet yli 4000 lentoasemalta (METAR- ja TAF-raportit).

Käytössä olevat sääasemat on merkitty karttaan keltaisilla ja punaisilla pisteillä.

Aseta hiiri pisteen päälle nähdäksesi sääaseman nimen.

Klikkaa sitten nähdäksesi säähavainnot ja -ennusteet.

Kartan vaihtaminen: klikkaa mustalla rastilla varustettuja vihreitä pisteitä, niin voit zoomata sisään; viivalla varustettua vihreää pistettä, niin voit zoomata ulos tai vihreitä nuolia, niin pääset viereisille kartoille.


METAR-TAF: